This is the latest recevied weather packets stored in our database for station/object N8BAP. If no packets are shown the sender has not sent any weather packets the latest 1 day(s).
| Time | Temp. | Humidity | Pressure | Rain* | Wind** | Luminosity | Snow |
|---|---|---|---|---|---|---|---|
| 1778021937 | 15.56° C | 92% | 1013.5 hPa | 0 mm | 2.24 m/s, 239° | 55 W/m² | - |
| 1778021634 | 15.56° C | 93% | 1013.5 hPa | 0 mm | 1.79 m/s, 222° | 38 W/m² | - |
| 1778021329 | 15.56° C | 93% | 1013.5 hPa | 0 mm | 1.34 m/s, 228° | 39 W/m² | - |
| 1778021027 | 15.56° C | 93% | 1013.5 hPa | 0 mm | 1.79 m/s, 212° | 49 W/m² | - |
| 1778020724 | 15.56° C | 93% | 1013.7 hPa | 0 mm | 2.24 m/s, 209° | 43 W/m² | - |
| 1778020421 | 15.56° C | 93% | 1013.6 hPa | 1.27 mm | 3.13 m/s, 233° | 56 W/m² | - |
| 1778020116 | 15.56° C | 93% | 1013.6 hPa | 1.27 mm | 1.34 m/s, 261° | 74 W/m² | - |
| 1778019813 | 15.56° C | 93% | 1013.6 hPa | 1.27 mm | 3.13 m/s, 229° | 46 W/m² | - |
| 1778019510 | 15.56° C | 92% | 1013.6 hPa | 0 mm | 3.13 m/s, 236° | 58 W/m² | - |
| 1778019207 | 15.56° C | 92% | 1013.7 hPa | 0 mm | 1.79 m/s, 263° | 82 W/m² | - |
| 1778018904 | 15.56° C | 93% | 1013.8 hPa | 0 mm | 2.68 m/s, 205° | 75 W/m² | - |
| 1778018601 | 15.56° C | 93% | 1013.7 hPa | 1.78 mm | 2.68 m/s, 228° | 81 W/m² | - |
| 1778018299 | 15.56° C | 93% | 1013.8 hPa | 1.78 mm | 3.13 m/s, 211° | 75 W/m² | - |
| 1778017997 | 15.56° C | 93% | 1014 hPa | 1.78 mm | 2.68 m/s, 231° | 62 W/m² | - |
| 1778017694 | 15.56° C | 92% | 1013.8 hPa | 3.05 mm | 3.13 m/s, 252° | 55 W/m² | - |
| 1778017392 | 15° C | 92% | 1014 hPa | 6.1 mm | 4.02 m/s, 250° | 50 W/m² | - |
| 1778017088 | 15° C | 91% | 1014 hPa | 4.32 mm | 4.47 m/s, 250° | 44 W/m² | - |
| 1778016787 | 15° C | 90% | 1013.9 hPa | 4.32 mm | 1.79 m/s, 271° | 42 W/m² | - |
| 1778016482 | 15° C | 89% | 1013.8 hPa | 6.6 mm | 3.13 m/s, 247° | 27 W/m² | - |
| 1778016179 | 15.56° C | 87% | 1013.8 hPa | 4.83 mm | 3.58 m/s, 270° | 35 W/m² | - |
| 1778015875 | 17.22° C | 80% | 1013.8 hPa | 1.27 mm | 4.47 m/s, 262° | 20 W/m² | - |
| 1778015573 | 20° C | 65% | 1013.6 hPa | 0 mm | 8.49 m/s, 270° | 8 W/m² | - |
| 1778015269 | 20.56° C | 60% | 1013.1 hPa | 0 mm | 3.58 m/s, 200° | 52 W/m² | - |
| 1778014967 | 20.56° C | 60% | 1013 hPa | 0 mm | 2.24 m/s, 259° | 83 W/m² | - |
| 1778014663 | 20.56° C | 59% | 1012.9 hPa | 0 mm | 4.47 m/s, 248° | 94 W/m² | - |
* Rain latest hour (hover to see other rain measurements)
** Current wind speed in m/s (hover to see current wind gust speed)